sensor_id;sensor_type;location;lat;lon;timestamp;pressure;altitude;pressure_sealevel;temperature;humidity
54666;BME280;40566;50.006;36.180;2022-12-18T00:00:51;99415.50;;;8.56;91.55
54666;BME280;40566;50.006;36.180;2022-12-18T00:05:52;99433.41;;;8.25;91.78
54666;BME280;40566;50.006;36.180;2022-12-18T00:10:53;99452.84;;;8.01;91.89
54666;BME280;40566;50.006;36.180;2022-12-18T00:15:53;99458.59;;;7.73;91.83
54666;BME280;40566;50.006;36.180;2022-12-18T00:20:58;99473.09;;;7.33;91.47
54666;BME280;40566;50.006;36.180;2022-12-18T00:26:00;99505.41;;;7.02;91.49
54666;BME280;40566;50.006;36.180;2022-12-18T00:31:09;99489.50;;;6.78;91.41
54666;BME280;40566;50.006;36.180;2022-12-18T00:36:19;99493.47;;;6.43;91.17
54666;BME280;40566;50.006;36.180;2022-12-18T00:41:21;99504.94;;;6.22;91.33
54666;BME280;40566;50.006;36.180;2022-12-18T00:46:41;99505.16;;;6.04;91.41
54666;BME280;40566;50.006;36.180;2022-12-18T00:51:42;99501.00;;;5.90;91.33
54666;BME280;40566;50.006;36.180;2022-12-18T00:56:43;99529.38;;;5.81;91.32
54666;BME280;40566;50.006;36.180;2022-12-18T01:01:44;99531.19;;;5.73;91.30
54666;BME280;40566;50.006;36.180;2022-12-18T01:06:45;99556.84;;;5.73;91.15
54666;BME280;40566;50.006;36.180;2022-12-18T01:11:46;99581.78;;;5.62;90.88
54666;BME280;40566;50.006;36.180;2022-12-18T01:16:46;99589.56;;;5.51;90.85
54666;BME280;40566;50.006;36.180;2022-12-18T01:21:47;99605.00;;;5.46;90.85
54666;BME280;40566;50.006;36.180;2022-12-18T01:26:47;99607.66;;;5.37;90.45
54666;BME280;40566;50.006;36.180;2022-12-18T01:31:48;99602.69;;;5.20;90.16
54666;BME280;40566;50.006;36.180;2022-12-18T01:36:49;99617.25;;;5.15;90.13
54666;BME280;40566;50.006;36.180;2022-12-18T01:41:52;99607.97;;;5.00;89.84
54666;BME280;40566;50.006;36.180;2022-12-18T01:47:05;99615.75;;;4.82;89.95
54666;BME280;40566;50.006;36.180;2022-12-18T01:52:05;99615.09;;;4.56;89.67
54666;BME280;40566;50.006;36.180;2022-12-18T01:57:06;99626.25;;;4.42;89.72
54666;BME280;40566;50.006;36.180;2022-12-18T02:02:07;99639.94;;;4.28;89.48
54666;BME280;40566;50.006;36.180;2022-12-18T02:12:23;99658.78;;;4.12;89.22
54666;BME280;40566;50.006;36.180;2022-12-18T02:28:09;99695.53;;;3.89;89.19
54666;BME280;40566;50.006;36.180;2022-12-18T02:33:13;99708.31;;;3.80;88.65
54666;BME280;40566;50.006;36.180;2022-12-18T02:38:15;99708.34;;;3.66;88.54
54666;BME280;40566;50.006;36.180;2022-12-18T02:43:17;99706.63;;;3.48;88.57
54666;BME280;40566;50.006;36.180;2022-12-18T02:48:26;99721.13;;;3.45;88.85
54666;BME280;40566;50.006;36.180;2022-12-18T02:53:36;99721.13;;;3.40;88.66
54666;BME280;40566;50.006;36.180;2022-12-18T02:59:02;99738.19;;;3.46;88.59
54666;BME280;40566;50.006;36.180;2022-12-18T03:04:20;99738.19;;;3.44;88.22
54666;BME280;40566;50.006;36.180;2022-12-18T03:09:36;99739.00;;;3.31;88.28
54666;BME280;40566;50.006;36.180;2022-12-18T03:14:40;99753.50;;;3.35;88.50
54666;BME280;40566;50.006;36.180;2022-12-18T03:19:43;99760.31;;;3.36;88.56
54666;BME280;40566;50.006;36.180;2022-12-18T03:24:48;99762.03;;;3.38;88.18
54666;BME280;40566;50.006;36.180;2022-12-18T03:29:52;99756.06;;;3.41;88.25
54666;BME280;40566;50.006;36.180;2022-12-18T03:34:58;99750.13;;;3.50;88.10
54666;BME280;40566;50.006;36.180;2022-12-18T03:40:02;99770.53;;;3.45;88.23
54666;BME280;40566;50.006;36.180;2022-12-18T03:55:51;99784.16;;;3.23;87.80
54666;BME280;40566;50.006;36.180;2022-12-18T04:00:56;99800.31;;;3.12;87.69
54666;BME280;40566;50.006;36.180;2022-12-18T04:06:00;99813.91;;;3.01;87.63
54666;BME280;40566;50.006;36.180;2022-12-18T04:11:02;99813.88;;;2.93;87.85
54666;BME280;40566;50.006;36.180;2022-12-18T04:16:03;99820.66;;;2.94;87.94
54666;BME280;40566;50.006;36.180;2022-12-18T04:21:04;99840.25;;;2.90;87.82
54666;BME280;40566;50.006;36.180;2022-12-18T04:26:05;99836.03;;;2.98;87.80
54666;BME280;40566;50.006;36.180;2022-12-18T04:31:05;99858.13;;;2.92;87.39
54666;BME280;40566;50.006;36.180;2022-12-18T04:36:06;99850.44;;;2.86;87.63
54666;BME280;40566;50.006;36.180;2022-12-18T04:41:07;99854.69;;;2.81;87.48
54666;BME280;40566;50.006;36.180;2022-12-18T04:46:09;99869.16;;;2.83;87.45
54666;BME280;40566;50.006;36.180;2022-12-18T04:51:09;99883.59;;;2.75;87.25
54666;BME280;40566;50.006;36.180;2022-12-18T04:56:12;99894.63;;;2.69;87.48
54666;BME280;40566;50.006;36.180;2022-12-18T05:01:14;99904.00;;;2.69;87.51
54666;BME280;40566;50.006;36.180;2022-12-18T05:06:15;99908.16;;;2.61;87.38
54666;BME280;40566;50.006;36.180;2022-12-18T05:11:16;99917.53;;;2.60;87.33
54666;BME280;40566;50.006;36.180;2022-12-18T05:16:16;99931.09;;;2.51;87.22
54666;BME280;40566;50.006;36.180;2022-12-18T05:21:17;99931.09;;;2.51;86.98
54666;BME280;40566;50.006;36.180;2022-12-18T05:26:18;99937.88;;;2.49;86.95
54666;BME280;40566;50.006;36.180;2022-12-18T05:31:19;99943.88;;;2.54;87.07
54666;BME280;40566;50.006;36.180;2022-12-18T05:36:19;99966.91;;;2.62;86.95
54666;BME280;40566;50.006;36.180;2022-12-18T05:41:20;99960.06;;;2.58;86.92
54666;BME280;40566;50.006;36.180;2022-12-18T05:46:20;99967.81;;;2.70;86.96
54666;BME280;40566;50.006;36.180;2022-12-18T05:51:21;99966.97;;;2.70;87.01
54666;BME280;40566;50.006;36.180;2022-12-18T05:56:23;99978.81;;;2.57;86.75
54666;BME280;40566;50.006;36.180;2022-12-18T06:01:25;99981.41;;;2.66;86.52
54666;BME280;40566;50.006;36.180;2022-12-18T06:06:27;99995.94;;;2.69;86.37
54666;BME280;40566;50.006;36.180;2022-12-18T06:11:29;100013.75;;;2.64;86.65
54666;BME280;40566;50.006;36.180;2022-12-18T06:16:30;100027.38;;;2.63;86.21
54666;BME280;40566;50.006;36.180;2022-12-18T06:21:31;100034.94;;;2.51;86.17
54666;BME280;40566;50.006;36.180;2022-12-18T06:26:32;100035.78;;;2.51;86.52
54666;BME280;40566;50.006;36.180;2022-12-18T06:31:33;100044.25;;;2.49;86.19
54666;BME280;40566;50.006;36.180;2022-12-18T06:36:34;100056.94;;;2.43;86.52
54666;BME280;40566;50.006;36.180;2022-12-18T06:41:34;100073.13;;;2.42;86.45
54666;BME280;40566;50.006;36.180;2022-12-18T06:46:35;100069.63;;;2.35;86.44
54666;BME280;40566;50.006;36.180;2022-12-18T06:51:35;100071.34;;;2.36;86.55
54666;BME280;40566;50.006;36.180;2022-12-18T06:56:36;100067.88;;;2.31;86.76
54666;BME280;40566;50.006;36.180;2022-12-18T07:01:37;100089.25;;;2.41;86.49
54666;BME280;40566;50.006;36.180;2022-12-18T07:06:37;100085.84;;;2.37;86.38
54666;BME280;40566;50.006;36.180;2022-12-18T07:11:38;100086.59;;;2.30;86.31
54666;BME280;40566;50.006;36.180;2022-12-18T07:16:38;100075.47;;;2.22;86.67
54666;BME280;40566;50.006;36.180;2022-12-18T07:21:39;100103.56;;;2.25;86.68
54666;BME280;40566;50.006;36.180;2022-12-18T07:26:40;100108.66;;;2.25;86.60
54666;BME280;40566;50.006;36.180;2022-12-18T07:31:40;100115.56;;;2.33;86.30
54666;BME280;40566;50.006;36.180;2022-12-18T07:36:41;100130.00;;;2.30;86.36
54666;BME280;40566;50.006;36.180;2022-12-18T07:41:41;100138.53;;;2.35;86.44
54666;BME280;40566;50.006;36.180;2022-12-18T07:46:46;100146.13;;;2.27;86.41
54666;BME280;40566;50.006;36.180;2022-12-18T07:51:48;100146.97;;;2.26;86.37
54666;BME280;40566;50.006;36.180;2022-12-18T07:56:50;100145.31;;;2.33;86.32
54666;BME280;40566;50.006;36.180;2022-12-18T08:01:50;100151.31;;;2.33;85.97
54666;BME280;40566;50.006;36.180;2022-12-18T08:06:51;100158.09;;;2.31;85.91
54666;BME280;40566;50.006;36.180;2022-12-18T08:11:52;100153.88;;;2.36;86.09
54666;BME280;40566;50.006;36.180;2022-12-18T08:16:52;100154.72;;;2.34;86.04
54666;BME280;40566;50.006;36.180;2022-12-18T08:21:53;100159.75;;;2.28;86.05
54666;BME280;40566;50.006;36.180;2022-12-18T08:26:53;100160.53;;;2.22;85.78
54666;BME280;40566;50.006;36.180;2022-12-18T08:31:54;100184.13;;;2.07;85.72
54666;BME280;40566;50.006;36.180;2022-12-18T08:36:54;100182.94;;;1.82;85.87
54666;BME280;40566;50.006;36.180;2022-12-18T08:41:55;100180.94;;;1.63;86.40
54666;BME280;40566;50.006;36.180;2022-12-18T08:47:14;100194.41;;;1.54;86.26
54666;BME280;40566;50.006;36.180;2022-12-18T08:52:15;100207.03;;;1.46;86.10
54666;BME280;40566;50.006;36.180;2022-12-18T08:57:15;100210.47;;;1.48;86.12
54666;BME280;40566;50.006;36.180;2022-12-18T09:02:16;100206.19;;;1.47;85.90
54666;BME280;40566;50.006;36.180;2022-12-18T09:07:17;100207.13;;;1.54;85.83
54666;BME280;40566;50.006;36.180;2022-12-18T09:12:17;100206.41;;;1.61;85.61
54666;BME280;40566;50.006;36.180;2022-12-18T09:17:18;100207.31;;;1.65;85.41
54666;BME280;40566;50.006;36.180;2022-12-18T09:22:19;100209.97;;;1.71;85.35
54666;BME280;40566;50.006;36.180;2022-12-18T09:27:19;100201.50;;;1.72;85.13
54666;BME280;40566;50.006;36.180;2022-12-18T09:32:20;100204.13;;;1.78;85.19
54666;BME280;40566;50.006;36.180;2022-12-18T09:37:20;100206.06;;;1.94;84.94
54666;BME280;40566;50.006;36.180;2022-12-18T09:42:22;100202.78;;;2.03;84.83
54666;BME280;40566;50.006;36.180;2022-12-18T09:47:29;100217.97;;;1.95;84.95
54666;BME280;40566;50.006;36.180;2022-12-18T09:52:37;100211.84;;;1.83;84.92
54666;BME280;40566;50.006;36.180;2022-12-18T09:57:44;100211.13;;;1.90;84.87
54666;BME280;40566;50.006;36.180;2022-12-18T10:02:46;100214.56;;;1.93;84.84
54666;BME280;40566;50.006;36.180;2022-12-18T10:08:05;100212.78;;;1.89;84.60
54666;BME280;40566;50.006;36.180;2022-12-18T10:18:49;100213.59;;;1.85;84.67
54666;BME280;40566;50.006;36.180;2022-12-18T10:28:57;100221.31;;;1.91;84.65
54666;BME280;40566;50.006;36.180;2022-12-18T10:33:58;100222.13;;;1.86;84.45
54666;BME280;40566;50.006;36.180;2022-12-18T10:39:18;100221.94;;;1.75;84.10
54666;BME280;40566;50.006;36.180;2022-12-18T10:44:21;100222.78;;;1.74;84.29
54666;BME280;40566;50.006;36.180;2022-12-18T10:49:32;100224.22;;;1.58;84.37
54666;BME280;40566;50.006;36.180;2022-12-18T10:54:34;100217.97;;;1.39;84.69
54666;BME280;40566;50.006;36.180;2022-12-18T10:59:54;100233.00;;;1.25;84.17
54666;BME280;40566;50.006;36.180;2022-12-18T11:04:55;100238.69;;;1.12;84.08
54666;BME280;40566;50.006;36.180;2022-12-18T11:10:01;100245.34;;;1.04;84.26
54666;BME280;40566;50.006;36.180;2022-12-18T11:15:02;100246.28;;;1.07;83.96
54666;BME280;40566;50.006;36.180;2022-12-18T11:20:26;100247.03;;;1.03;83.55
54666;BME280;40566;50.006;36.180;2022-12-18T11:25:30;100250.41;;;1.02;83.60
54666;BME280;40566;50.006;36.180;2022-12-18T11:30:33;100247.97;;;1.08;83.62
54666;BME280;40566;50.006;36.180;2022-12-18T11:35:39;100253.72;;;0.98;83.33
54666;BME280;40566;50.006;36.180;2022-12-18T11:40:45;100268.78;;;0.86;83.37
54666;BME280;40566;50.006;36.180;2022-12-18T11:45:50;100251.59;;;0.77;83.04
54666;BME280;40566;50.006;36.180;2022-12-18T11:50:54;100259.94;;;0.68;83.20
54666;BME280;40566;50.006;36.180;2022-12-18T12:38:42;100340.56;;;0.31;82.27
54666;BME280;40566;50.006;36.180;2022-12-18T12:43:46;100354.50;;;0.11;82.33
54666;BME280;40566;50.006;36.180;2022-12-18T12:49:14;100364.00;;;0.18;82.24
54666;BME280;40566;50.006;36.180;2022-12-18T12:54:20;100369.88;;;0.15;82.07
54666;BME280;40566;50.006;36.180;2022-12-18T12:59:28;100377.38;;;0.11;82.13
54666;BME280;40566;50.006;36.180;2022-12-18T13:04:41;100372.97;;;0.04;81.80
54666;BME280;40566;50.006;36.180;2022-12-18T13:15:13;100382.69;;;-0.15;81.70
54666;BME280;40566;50.006;36.180;2022-12-18T13:20:20;100380.19;;;-0.13;81.51
54666;BME280;40566;50.006;36.180;2022-12-18T13:25:31;100404.63;;;-0.18;81.61
54666;BME280;40566;50.006;36.180;2022-12-18T13:35:38;100415.41;;;-0.27;81.19
54666;BME280;40566;50.006;36.180;2022-12-18T13:45:45;100426.06;;;-0.41;81.37
54666;BME280;40566;50.006;36.180;2022-12-18T13:51:02;100418.28;;;-0.47;81.39
54666;BME280;40566;50.006;36.180;2022-12-18T13:56:04;100439.41;;;-0.48;81.32
54666;BME280;40566;50.006;36.180;2022-12-18T14:01:21;100441.03;;;-0.51;81.06
54666;BME280;40566;50.006;36.180;2022-12-18T14:06:22;100447.53;;;-0.60;80.76
54666;BME280;40566;50.006;36.180;2022-12-18T14:11:22;100461.28;;;-0.53;80.82
54666;BME280;40566;50.006;36.180;2022-12-18T14:16:23;100470.72;;;-0.49;80.46
54666;BME280;40566;50.006;36.180;2022-12-18T14:21:30;100482.44;;;-0.54;80.39
54666;BME280;40566;50.006;36.180;2022-12-18T14:26:34;100477.22;;;-0.58;80.19
54666;BME280;40566;50.006;36.180;2022-12-18T14:31:35;100500.03;;;-0.60;80.11
54666;BME280;40566;50.006;36.180;2022-12-18T14:36:35;100500.47;;;-0.73;80.14
54666;BME280;40566;50.006;36.180;2022-12-18T14:41:36;100501.50;;;-0.68;80.15
54666;BME280;40566;50.006;36.180;2022-12-18T14:46:38;100504.75;;;-0.72;80.02
54666;BME280;40566;50.006;36.180;2022-12-18T14:51:51;100522.19;;;-0.83;79.81
54666;BME280;40566;50.006;36.180;2022-12-18T15:02:22;100536.69;;;-0.81;79.53
54666;BME280;40566;50.006;36.180;2022-12-18T15:07:24;100533.69;;;-0.67;79.47
54666;BME280;40566;50.006;36.180;2022-12-18T15:12:32;100535.84;;;-0.52;78.77
54666;BME280;40566;50.006;36.180;2022-12-18T15:17:33;100548.25;;;-0.62;78.95
54666;BME280;40566;50.006;36.180;2022-12-18T15:22:35;100539.59;;;-0.68;79.00
54666;BME280;40566;50.006;36.180;2022-12-18T15:27:36;100553.56;;;-0.83;79.10
54666;BME280;40566;50.006;36.180;2022-12-18T15:32:39;100546.91;;;-0.77;78.72
54666;BME280;40566;50.006;36.180;2022-12-18T15:37:44;100565.41;;;-0.82;78.62
54666;BME280;40566;50.006;36.180;2022-12-18T15:42:45;100566.72;;;-0.94;78.57
54666;BME280;40566;50.006;36.180;2022-12-18T15:48:34;100572.16;;;-1.09;78.00
54666;BME280;40566;50.006;36.180;2022-12-18T15:53:35;100583.84;;;-1.14;78.26
54666;BME280;40566;50.006;36.180;2022-12-18T15:58:36;100588.63;;;-1.24;78.01
54666;BME280;40566;50.006;36.180;2022-12-18T16:03:37;100592.91;;;-1.21;77.77
54666;BME280;40566;50.006;36.180;2022-12-18T16:08:37;100608.28;;;-1.18;77.80
54666;BME280;40566;50.006;36.180;2022-12-18T16:13:38;100597.66;;;-1.32;77.73
54666;BME280;40566;50.006;36.180;2022-12-18T16:18:38;100608.91;;;-1.24;77.76
54666;BME280;40566;50.006;36.180;2022-12-18T16:23:39;100610.50;;;-1.27;77.43
54666;BME280;40566;50.006;36.180;2022-12-18T16:28:39;100628.19;;;-1.29;77.28
54666;BME280;40566;50.006;36.180;2022-12-18T16:33:40;100627.47;;;-1.26;77.00
54666;BME280;40566;50.006;36.180;2022-12-18T16:38:41;100625.84;;;-1.23;76.92
54666;BME280;40566;50.006;36.180;2022-12-18T16:43:42;100635.00;;;-1.28;76.61
54666;BME280;40566;50.006;36.180;2022-12-18T16:48:42;100647.75;;;-1.26;76.50
54666;BME280;40566;50.006;36.180;2022-12-18T16:53:43;100651.75;;;-1.33;76.42
54666;BME280;40566;50.006;36.180;2022-12-18T16:58:45;100671.69;;;-1.44;76.25
54666;BME280;40566;50.006;36.180;2022-12-18T17:03:54;100669.63;;;-1.54;76.27
54666;BME280;40566;50.006;36.180;2022-12-18T17:08:56;100676.75;;;-1.44;76.30
54666;BME280;40566;50.006;36.180;2022-12-18T17:13:57;100685.38;;;-1.38;76.14
54666;BME280;40566;50.006;36.180;2022-12-18T17:18:58;100687.13;;;-1.37;76.04
54666;BME280;40566;50.006;36.180;2022-12-18T17:23:59;100690.63;;;-1.34;75.99
54666;BME280;40566;50.006;36.180;2022-12-18T17:29:00;100714.25;;;-1.35;75.84
54666;BME280;40566;50.006;36.180;2022-12-18T17:34:02;100705.50;;;-1.43;75.94
54666;BME280;40566;50.006;36.180;2022-12-18T17:39:03;100699.59;;;-1.44;75.79
54666;BME280;40566;50.006;36.180;2022-12-18T17:44:05;100718.06;;;-1.46;75.61
54666;BME280;40566;50.006;36.180;2022-12-18T17:49:05;100712.59;;;-1.34;75.45
54666;BME280;40566;50.006;36.180;2022-12-18T17:54:06;100717.84;;;-1.30;75.23
54666;BME280;40566;50.006;36.180;2022-12-18T17:59:07;100726.88;;;-1.38;75.56
54666;BME280;40566;50.006;36.180;2022-12-18T18:04:07;100736.81;;;-1.43;75.57
54666;BME280;40566;50.006;36.180;2022-12-18T18:09:08;100736.94;;;-1.40;75.78
54666;BME280;40566;50.006;36.180;2022-12-18T18:14:18;100744.06;;;-1.53;75.73
54666;BME280;40566;50.006;36.180;2022-12-18T18:19:22;100750.81;;;-1.54;75.50
54666;BME280;40566;50.006;36.180;2022-12-18T18:24:23;100762.72;;;-1.51;75.43
54666;BME280;40566;50.006;36.180;2022-12-18T18:29:25;100767.75;;;-1.53;75.56
54666;BME280;40566;50.006;36.180;2022-12-18T18:34:28;100768.59;;;-1.52;75.37
54666;BME280;40566;50.006;36.180;2022-12-18T18:39:29;100772.88;;;-1.51;75.25
54666;BME280;40566;50.006;36.180;2022-12-18T18:44:30;100783.66;;;-1.57;75.01
54666;BME280;40566;50.006;36.180;2022-12-18T18:49:31;100782.34;;;-1.70;75.00
54666;BME280;40566;50.006;36.180;2022-12-18T18:54:31;100791.97;;;-1.61;75.14
54666;BME280;40566;50.006;36.180;2022-12-18T18:59:32;100802.91;;;-1.62;74.90
54666;BME280;40566;50.006;36.180;2022-12-18T19:04:33;100803.56;;;-1.68;75.07
54666;BME280;40566;50.006;36.180;2022-12-18T19:09:34;100805.09;;;-1.71;74.83
54666;BME280;40566;50.006;36.180;2022-12-18T19:14:35;100812.50;;;-1.76;74.74
54666;BME280;40566;50.006;36.180;2022-12-18T19:19:36;100822.47;;;-1.81;74.84
54666;BME280;40566;50.006;36.180;2022-12-18T19:24:36;100827.78;;;-1.74;74.94
54666;BME280;40566;50.006;36.180;2022-12-18T19:29:38;100838.38;;;-1.64;74.60
54666;BME280;40566;50.006;36.180;2022-12-18T19:34:39;100839.53;;;-1.55;74.55
54666;BME280;40566;50.006;36.180;2022-12-18T19:39:39;100844.47;;;-1.58;74.51
54666;BME280;40566;50.006;36.180;2022-12-18T19:44:40;100849.53;;;-1.58;74.62
54666;BME280;40566;50.006;36.180;2022-12-18T19:49:40;100853.59;;;-1.64;74.58
54666;BME280;40566;50.006;36.180;2022-12-18T19:54:41;100857.75;;;-1.66;74.43
54666;BME280;40566;50.006;36.180;2022-12-18T19:59:42;100868.81;;;-1.64;74.68
54666;BME280;40566;50.006;36.180;2022-12-18T20:04:43;100875.53;;;-1.64;74.71
54666;BME280;40566;50.006;36.180;2022-12-18T20:09:44;100873.69;;;-1.68;74.51
54666;BME280;40566;50.006;36.180;2022-12-18T20:14:44;100874.50;;;-1.69;74.46
54666;BME280;40566;50.006;36.180;2022-12-18T20:19:45;100883.09;;;-1.66;74.42
54666;BME280;40566;50.006;36.180;2022-12-18T20:24:45;100894.97;;;-1.65;74.46
54666;BME280;40566;50.006;36.180;2022-12-18T20:29:46;100893.25;;;-1.66;74.40
54666;BME280;40566;50.006;36.180;2022-12-18T20:34:47;100911.13;;;-1.63;74.40
54666;BME280;40566;50.006;36.180;2022-12-18T20:39:48;100923.00;;;-1.62;74.40
54666;BME280;40566;50.006;36.180;2022-12-18T20:44:51;100935.44;;;-1.68;74.23
54666;BME280;40566;50.006;36.180;2022-12-18T20:49:52;100947.56;;;-1.61;74.29
54666;BME280;40566;50.006;36.180;2022-12-18T20:54:53;100948.16;;;-1.66;73.94
54666;BME280;40566;50.006;36.180;2022-12-18T20:59:54;100961.47;;;-1.72;74.21
54666;BME280;40566;50.006;36.180;2022-12-18T21:04:54;100958.44;;;-1.63;74.24
54666;BME280;40566;50.006;36.180;2022-12-18T21:09:55;100972.50;;;-1.50;74.21
54666;BME280;40566;50.006;36.180;2022-12-18T21:15:07;100968.00;;;-1.57;74.27
54666;BME280;40566;50.006;36.180;2022-12-18T21:20:09;100967.06;;;-1.60;74.15
54666;BME280;40566;50.006;36.180;2022-12-18T21:25:10;100955.91;;;-1.63;73.87
54666;BME280;40566;50.006;36.180;2022-12-18T21:30:10;100953.31;;;-1.65;74.14
54666;BME280;40566;50.006;36.180;2022-12-18T21:35:11;100960.31;;;-1.59;73.88
54666;BME280;40566;50.006;36.180;2022-12-18T21:40:12;100974.72;;;-1.58;73.79
54666;BME280;40566;50.006;36.180;2022-12-18T21:45:13;100984.81;;;-1.60;73.75
54666;BME280;40566;50.006;36.180;2022-12-18T21:50:13;101002.63;;;-1.58;73.71
54666;BME280;40566;50.006;36.180;2022-12-18T21:55:14;101003.50;;;-1.57;73.65
54666;BME280;40566;50.006;36.180;2022-12-18T22:00:15;100999.22;;;-1.58;73.95
54666;BME280;40566;50.006;36.180;2022-12-18T22:05:16;100986.69;;;-1.55;73.86
54666;BME280;40566;50.006;36.180;2022-12-18T22:10:16;100996.00;;;-1.54;73.71
54666;BME280;40566;50.006;36.180;2022-12-18T22:15:17;101009.38;;;-1.58;74.02
54666;BME280;40566;50.006;36.180;2022-12-18T22:20:18;101016.03;;;-1.61;73.54
54666;BME280;40566;50.006;36.180;2022-12-18T22:25:18;101025.41;;;-1.60;73.89
54666;BME280;40566;50.006;36.180;2022-12-18T22:30:19;101028.94;;;-1.56;73.86
54666;BME280;40566;50.006;36.180;2022-12-18T22:35:20;101030.66;;;-1.55;73.67
54666;BME280;40566;50.006;36.180;2022-12-18T22:40:22;101030.00;;;-1.51;73.63
54666;BME280;40566;50.006;36.180;2022-12-18T22:45:26;101032.84;;;-1.43;73.62
54666;BME280;40566;50.006;36.180;2022-12-18T22:50:27;101032.09;;;-1.41;73.55
54666;BME280;40566;50.006;36.180;2022-12-18T22:55:27;101043.00;;;-1.43;73.61
54666;BME280;40566;50.006;36.180;2022-12-18T23:00:28;101056.44;;;-1.46;74.13
54666;BME280;40566;50.006;36.180;2022-12-18T23:05:29;101052.91;;;-1.49;73.90
54666;BME280;40566;50.006;36.180;2022-12-18T23:10:30;101060.38;;;-1.52;74.12
54666;BME280;40566;50.006;36.180;2022-12-18T23:15:31;101062.03;;;-1.53;74.23
54666;BME280;40566;50.006;36.180;2022-12-18T23:20:33;101068.13;;;-1.49;74.37
54666;BME280;40566;50.006;36.180;2022-12-18T23:25:33;101079.72;;;-1.35;74.17
54666;BME280;40566;50.006;36.180;2022-12-18T23:30:34;101077.09;;;-1.36;74.22
54666;BME280;40566;50.006;36.180;2022-12-18T23:35:35;101089.50;;;-1.44;73.96
54666;BME280;40566;50.006;36.180;2022-12-18T23:40:35;101105.66;;;-1.42;74.09
54666;BME280;40566;50.006;36.180;2022-12-18T23:45:37;101109.03;;;-1.42;74.22
54666;BME280;40566;50.006;36.180;2022-12-18T23:50:38;101122.75;;;-1.38;74.01
54666;BME280;40566;50.006;36.180;2022-12-18T23:55:40;101118.59;;;-1.36;73.87
